Nearby METAR Reports

 

KIAG - Niagara Falls, New York, USA
Distance from station: W 12mi, 20km
Updated: 10/22/2021 1:53am
Overcast
Overcast
 Wind from NW
Wind: NW 17 mph , 28 km/h
Temperature: 54°F , 12°C
Dew Point: 48°F , 9°C
Humidity: 82%
Barometer: 1008.1 hPa
Clouds: Overcast
Visibility: 10 miles , 16 km
Cloud details: Mostly cloudy 1800 ft
Overcast 2400 ft
2021/10/22 05:53 KIAG 220553Z AUTO 31015KT 10SM BKN018 OVC024 12/09 A2977 RMK AO2 WSHFT 0459 RAB06E35 SLP082 P0000 60000 T01220089 10178 20122 53019
KBUF - Buffalo/Cheektow, New York, USA
Distance from station: S 13mi, 21km
Updated: 10/22/2021 2:07am
Light rain, Overcast
Light rain, Overcast
 Wind from NW
Wind: NW 15 mph , 24 km/h
Temperature: 54°F , 12°C
Dew Point: 50°F , 10°C
Humidity: 88%
Barometer: 1008.1 hPa
Summary: Light rain
Clouds: Overcast
Visibility: 8 miles , 13 km
Cloud details: Partly cloudy 900 ft
Overcast 1900 ft
2021/10/22 06:07 KBUF 220607Z 31013KT 8SM -RA SCT009 OVC019 12/10 A2977 RMK AO2 RAB0555 P0000 T01220100 $
 
KROC - Rochester, New York, USA
Distance from station: E 51mi, 82km
Updated: 10/22/2021 2:21am
Overcast
Overcast
 Wind from W
Wind: W 14 mph , 22 km/h
Temperature: 57°F , 14°C
Dew Point: 54°F , 12°C
Humidity: 88%
Barometer: 1006.8 hPa
Clouds: Overcast
Visibility: 10 miles , 16 km
Cloud details: Mostly cloudy 1400 ft
Overcast 2000 ft
2021/10/22 06:21 KROC 220621Z 27012KT 10SM BKN014 OVC020 14/12 A2973 RMK AO2 T01390117
CYSN - St. Catharines A, Ontario, Canada
Distance from station: WNW 25mi, 40km
Updated: 10/21/2021 9:00pm
NOT Current
Mostly cloudy
Mostly cloudy
 Wind from W
Wind: W 14 mph , 22 km/h, Gust: 22 mph , 35 km/h
Temperature: 59°F , 15°C
Dew Point: 55°F , 13°C
Humidity: 88%
Barometer: 1005.1 hPa
Clouds: Mostly cloudy
Visibility: 15 miles , 24 km
Cloud details: Partly cloudy 5000 ft
Mostly cloudy 7000 ft
2021/10/22 01:00 CYSN 220100Z 27012G19KT 15SM SCT050 BKN070 15/13 A2968 WS RWY050 RMK SC3AC3 LAST STFD OBS/NEXT 221100 UTC SLP053 DENSITY ALT 700FT
 
KOLE - Olean, New York, USA
Distance from station: SSE 63mi, 102km
Updated: 10/17/2021 12:01am
NOT Current
Overcast
Overcast
 Wind from calm
Wind: Calm
Temperature: 45°F , 7°C
Dew Point: 45°F , 7°C
Humidity: 100%
Barometer: 1011.2 hPa
Clouds: Overcast
Visibility: 10 miles , 16 km
Cloud details: Partly cloudy 1800 ft
Mostly cloudy 5500 ft
Overcast 6500 ft
2021/10/17 04:01 KOLE 170401Z 00000KT 10SM SCT018 BKN055 OVC065 07/07 A2986
KJHW - Jamestown, New York, USA
Distance from station: SSW 74mi, 119km
Updated: 10/22/2021 1:56am
Light rain, Mist, Overcast
Light rain, Mist, Overcast
 Wind from WSW
Wind: WSW 13 mph , 20 km/h
Temperature: 52°F , 11°C
Dew Point: 50°F , 10°C
Humidity: 94%
Barometer: 1009.5 hPa
Summary: Light rain, Mist
Clouds: Overcast
Visibility: 3 miles , 5 km
Cloud details: Overcast 600 ft
2021/10/22 05:56 KJHW 220556Z AUTO 25011KT 3SM -RA BR OVC006 11/10 A2981 RMK AO2 CIG 004V009 SLP096 P0002 60010 T01110100 10144 20111 51004
 
CWWZ - Port Weller (mar, Ontario, Canada
Distance from station: WNW 28mi, 45km
Updated: 10/22/2021 2:00am

 Wind from WNW
Wind: WNW 25 mph , 41 km/h
Temperature: 54°F , 12°C
Dew Point: 50°F , 10°C
Humidity: 88%
2021/10/22 06:00 CWWZ 220600Z AUTO 30022KT 12/10 RMK AO1 3026 PK WND 31027/0502 SLP091 T01230102 50057
CWPC - Port Colborne(Au, Ontario, Canada
Distance from station: WSW 33mi, 53km
Updated: 10/22/2021 2:00am

 Wind from NW
Wind: NW 16 mph , 26 km/h
Temperature: 54°F , 12°C
Dew Point: 50°F , 10°C
Humidity: 88%
2021/10/22 06:00 CWPC 220600Z AUTO 32014KT 12/10 RMK AO1 PK WND 29022/0531 SLP095 T01240095 53017
 
CXVN - Vineland (au8), Ontario, Canada
Distance from station: W 36mi, 58km
Updated: 10/22/2021 2:00am

 Wind from NW
Wind: NW 14 mph , 22 km/h, Gust: 21 mph , 33 km/h
Temperature: 54°F , 12°C
Dew Point: 46°F , 8°C
Humidity: 77%
2021/10/22 06:00 CXVN 220600Z AUTO 31012G18KT 12/08 RMK AO1 3026 PK WND 32020/0515 SLP086 T01180081 50019
CYTZ - Toronto Il Vor, Ontario, Canada
Distance from station: NW 50mi, 81km
Updated: 10/22/2021 2:00am
Mostly cloudy
Mostly cloudy
 Wind from NW
Wind: NW 15 mph , 24 km/h, Gust: 30 mph , 48 km/h
Temperature: 50°F , 10°C
Wind Chill: 45°F , 7°C
Dew Point: 43°F , 6°C
Humidity: 76%
Barometer: 1008.1 hPa
Clouds: Mostly cloudy
Visibility: 9 miles , 14 km
Cloud details: Mostly cloudy 1600 ft
2021/10/22 06:00 CYTZ 220600Z AUTO 32013G26KT 9SM BKN016 10/06 A2977 RMK SLP084
 
CXTO - Toronto City, Ontario, Canada
Distance from station: NW 52mi, 84km
Updated: 10/22/2021 2:00am

 
Temperature: 48°F , 9°C
Dew Point: 43°F , 6°C
Humidity: 82%
2021/10/22 06:00 CXTO 220600Z AUTO 09/06 RMK AO1 2022 SLP086 T00940062 50009
KDKK - Dunkirk, New York, USA
Distance from station: SW 52mi, 84km
Updated: 10/22/2021 2:16am
Overcast
Overcast
 Wind from WNW
Wind: WNW 9 mph , 15 km/h, Gust: 20 mph , 31 km/h
Temperature: 57°F , 14°C
Dew Point: 52°F , 11°C
Humidity: 82%
Barometer: 1009.1 hPa
Clouds: Overcast
Visibility: 10 miles , 16 km
Cloud details: Mostly cloudy 1400 ft
Mostly cloudy 1900 ft
Overcast 2500 ft
2021/10/22 06:16 KDKK 220616Z AUTO 29008G17KT 10SM BKN014 BKN019 OVC025 14/11 A2980 RMK AO2 T01440111
 
CYOO - Oshawa, Ontario, Canada
Distance from station: N 56mi, 90km
Updated: 10/22/2021 2:00am
Overcast
Overcast
 Wind from NW
Wind: NW 15 mph , 24 km/h, Gust: 22 mph , 35 km/h
Temperature: 48°F , 9°C
Wind Chill: 42°F , 6°C
Dew Point: 46°F , 8°C
Humidity: 94%
Barometer: 1007.1 hPa
Clouds: Overcast
Visibility: 9 miles , 14 km
Cloud details: Overcast 1200 ft
2021/10/22 06:00 CYOO 220600Z AUTO 32013G19KT 9SM OVC012 09/08 A2974 RMK SLP074
CWWB - Burlington Piers, Ontario, Canada
Distance from station: WNW 56mi, 91km
Updated: 10/22/2021 2:00am

 Wind from NW
Wind: NW 9 mph , 15 km/h
Temperature: 52°F , 11°C
Dew Point: 45°F , 7°C
Humidity: 77%
2021/10/22 06:00 CWWB 220600Z AUTO 31008KT 11/07 RMK AO1 SLP099 T01070071 53029
 
CYYZ - Toronto/Pearson, Ontario, Canada
Distance from station: NW 60mi, 96km
Updated: 10/22/2021 2:00am
Mostly cloudy
Mostly cloudy
 Wind from NNW
Wind: NNW 20 mph , 31 km/h, Gust: 26 mph , 43 km/h
Temperature: 46°F , 8°C
Wind Chill: 38°F , 3°C
Dew Point: 43°F , 6°C
Humidity: 87%
Barometer: 1008.8 hPa
Clouds: Mostly cloudy
Visibility: 15 miles , 24 km
Cloud details: Partly cloudy 1500 ft
Mostly cloudy 5000 ft
2021/10/22 06:00 CYYZ 220600Z 33017G23KT 15SM SCT015 BKN050 08/06 A2979 RMK SC3SC3 SLP092
CYKZ - Toronto Buttonvi, Ontario, Canada
Distance from station: NW 62mi, 99km
Updated: 01/03/2019 4:00am
NOT Current
Partly cloudy
Partly cloudy
 Wind from WSW
Wind: WSW 5 mph , 7 km/h
Temperature: 27°F , -3°C
Wind Chill: 21°F , -6°C
Dew Point: 23°F , -5°C
Humidity: 86%
Barometer: 1010.8 hPa
Clouds: Partly cloudy
Visibility: 15 miles , 24 km
Cloud details: Partly cloudy 4000 ft
2019/01/03 09:00 CYKZ 030900Z 25004KT 15SM SCT040 M03/M05 A2985 RMK SC3 LAST STFD OBS FAREWELL SLP118
 
CXHM - Hamilton Rbg Cs, Ontario, Canada
Distance from station: W 62mi, 100km
Updated: 10/22/2021 2:00am

 Wind from NW
Wind: NW 6 mph , 9 km/h
Temperature: 50°F , 10°C
Wind Chill: 48°F , 9°C
Dew Point: 45°F , 7°C
Humidity: 82%
2021/10/22 06:00 CXHM 220600Z AUTO 31005KT 10/07 RMK AO1 2027 SLP099 T01030070 50002
KDSV - Dansville, New York, USA
Distance from station: SE 62mi, 100km
Updated: 10/22/2021 1:54am
Partly cloudy
Partly cloudy
 Wind from calm
Wind: Calm
Temperature: 55°F , 13°C
Dew Point: 52°F , 11°C
Humidity: 88%
Barometer: 1007.8 hPa
Clouds: Partly cloudy
Visibility: 10 miles , 16 km
Cloud details: Partly cloudy 8000 ft
2021/10/22 05:54 KDSV 220554Z AUTO 00000KT 10SM SCT080 13/11 A2976 RMK AO2 SLP083 60004 T01330106 10161 20128 51007
 
CYHM - Hamilton Airport, Ontario, Canada
Distance from station: W 63mi, 101km
Updated: 10/22/2021 2:00am
Overcast
Overcast
 Wind from NW
Wind: NW 13 mph , 20 km/h, Gust: 21 mph , 33 km/h
Temperature: 48°F , 9°C
Wind Chill: 43°F , 6°C
Dew Point: 45°F , 7°C
Humidity: 87%
Barometer: 1009.5 hPa
Clouds: Overcast
Visibility: 15 miles , 24 km
Cloud details: Partly cloudy 1500 ft
Overcast 4000 ft
2021/10/22 06:00 CYHM 220600Z 31011G18KT 15SM SCT015 OVC040 09/07 A2981 RMK SC3SC5 SLP098
CWNC - Cobourg (mars), Ontario, Canada
Distance from station: NNE 63mi, 102km
Updated: 10/22/2021 2:00am

 Wind from NW
Wind: NW 10 mph , 17 km/h, Gust: 17 mph , 28 km/h
Temperature: 52°F , 11°C
Dew Point: 48°F , 9°C
Humidity: 88%
2021/10/22 06:00 CWNC 220600Z AUTO 31009G15KT 11/09 RMK AO1 3018 PK WND 31017/0523 SLP059 T01110092 50084